createdAt,value
2023-03-16T00:00:24.064Z,0.00
2023-03-16T00:01:24.105Z,0.00
2023-03-16T00:02:24.184Z,0.00
2023-03-16T00:03:24.223Z,0.00
2023-03-16T00:04:24.139Z,0.00
2023-03-16T00:05:24.153Z,0.00
2023-03-16T00:06:25.758Z,0.00
2023-03-16T00:07:24.184Z,0.00
2023-03-16T00:08:24.199Z,0.00
2023-03-16T00:09:24.217Z,0.00
2023-03-16T00:10:24.235Z,0.00
2023-03-16T00:11:24.248Z,0.00
2023-03-16T00:12:24.274Z,0.00
2023-03-16T00:13:24.278Z,0.00
2023-03-16T00:14:24.302Z,0.00
2023-03-16T00:15:24.317Z,0.00
2023-03-16T00:16:24.428Z,0.00
2023-03-16T00:17:24.346Z,0.00
2023-03-16T00:18:24.372Z,0.00
2023-03-16T00:19:24.383Z,0.00
2023-03-16T00:20:24.472Z,0.00
2023-03-16T00:21:24.415Z,0.00
2023-03-16T00:22:24.433Z,0.00
2023-03-16T00:23:24.448Z,0.00
2023-03-16T00:24:24.460Z,0.00
2023-03-16T00:25:24.538Z,0.00
2023-03-16T00:26:24.506Z,0.00
2023-03-16T00:27:24.518Z,0.00
2023-03-16T00:28:24.526Z,0.00
2023-03-16T00:29:24.551Z,0.00
2023-03-16T00:30:24.558Z,0.00
2023-03-16T00:31:24.608Z,0.00
2023-03-16T00:32:24.638Z,0.00
2023-03-16T00:33:24.621Z,0.00
2023-03-16T00:34:24.636Z,0.00
2023-03-16T00:35:24.640Z,0.00
2023-03-16T00:36:24.650Z,0.00
2023-03-16T00:37:24.691Z,0.00
2023-03-16T00:38:24.688Z,0.00
2023-03-16T00:39:24.705Z,0.00
2023-03-16T00:40:24.824Z,0.00
2023-03-16T00:41:24.729Z,0.00
2023-03-16T00:42:24.749Z,0.00
2023-03-16T00:43:24.766Z,0.00
2023-03-16T00:44:24.777Z,0.00
2023-03-16T00:45:24.807Z,0.00
2023-03-16T00:46:24.860Z,0.00
2023-03-16T00:47:24.838Z,0.00
2023-03-16T00:48:24.847Z,0.00
2023-03-16T00:49:24.863Z,0.00
2023-03-16T00:50:24.881Z,0.00
2023-03-16T00:51:24.897Z,0.00
2023-03-16T00:52:24.915Z,0.00
2023-03-16T00:53:24.934Z,0.00
2023-03-16T00:54:24.945Z,0.00
2023-03-16T00:55:24.958Z,0.00
2023-03-16T00:56:24.975Z,0.00
2023-03-16T00:57:24.994Z,0.00
2023-03-16T00:58:25.011Z,0.00
2023-03-16T00:59:25.023Z,0.00
2023-03-16T01:00:25.337Z,0.00
2023-03-16T01:01:25.109Z,0.00
2023-03-16T01:02:25.082Z,0.00
2023-03-16T01:03:25.155Z,0.00
2023-03-16T01:04:25.118Z,0.00
2023-03-16T01:05:25.123Z,0.00
2023-03-16T01:06:25.141Z,0.00
2023-03-16T01:07:25.160Z,0.00
2023-03-16T01:08:25.172Z,0.00
2023-03-16T01:09:25.204Z,0.00
2023-03-16T01:10:25.203Z,0.00
2023-03-16T01:11:25.220Z,0.00
2023-03-16T01:12:25.234Z,0.00
2023-03-16T01:13:25.256Z,0.00
2023-03-16T01:14:25.274Z,0.00
2023-03-16T01:15:25.293Z,0.00
2023-03-16T01:16:25.370Z,0.00
2023-03-16T01:17:25.313Z,0.00
2023-03-16T01:18:25.331Z,0.00
2023-03-16T01:19:25.348Z,0.00
2023-03-16T01:20:25.562Z,0.00
2023-03-16T01:21:25.382Z,0.00
2023-03-16T01:22:25.407Z,0.00
2023-03-16T01:23:25.412Z,0.00
2023-03-16T01:24:25.430Z,0.00
2023-03-16T01:25:25.449Z,0.00
2023-03-16T01:26:25.457Z,0.00
2023-03-16T01:27:25.473Z,0.00
2023-03-16T01:28:25.490Z,0.00
2023-03-16T01:29:25.509Z,0.00
2023-03-16T01:30:25.953Z,0.00
2023-03-16T01:31:25.553Z,0.00
2023-03-16T01:32:25.571Z,0.00
2023-03-16T01:33:25.572Z,0.00
2023-03-16T01:34:25.587Z,0.00
2023-03-16T01:35:25.637Z,0.00
2023-03-16T01:36:25.653Z,0.00
2023-03-16T01:37:25.636Z,0.00
2023-03-16T01:38:25.659Z,0.00
2023-03-16T01:39:25.686Z,0.00
2023-03-16T01:40:25.953Z,0.00
2023-03-16T01:41:25.695Z,0.00
2023-03-16T01:42:25.717Z,0.00
2023-03-16T01:43:25.746Z,0.00
2023-03-16T01:44:25.744Z,0.00
2023-03-16T01:45:25.766Z,0.00
2023-03-16T01:46:25.811Z,0.00
2023-03-16T01:47:25.912Z,0.00
2023-03-16T01:48:25.833Z,0.00
2023-03-16T01:49:25.833Z,0.00
2023-03-16T01:50:26.235Z,0.00
2023-03-16T01:51:25.853Z,0.00
2023-03-16T01:52:25.881Z,0.00
2023-03-16T01:53:25.915Z,0.00
2023-03-16T01:54:25.904Z,0.00
2023-03-16T01:55:25.919Z,0.00
2023-03-16T01:56:25.935Z,0.00
2023-03-16T01:57:25.952Z,0.00
2023-03-16T01:58:25.969Z,0.00
2023-03-16T01:59:25.982Z,0.00
2023-03-16T02:00:26.126Z,0.00
2023-03-16T02:01:26.187Z,0.00
2023-03-16T02:02:26.035Z,0.00
2023-03-16T02:03:26.049Z,0.00
2023-03-16T02:04:26.099Z,0.00
2023-03-16T02:05:26.079Z,0.00
2023-03-16T02:06:26.107Z,0.00
2023-03-16T02:07:26.118Z,0.00
2023-03-16T02:08:26.129Z,0.00
2023-03-16T02:09:26.150Z,0.00
2023-03-16T02:10:26.688Z,0.00
2023-03-16T02:11:26.173Z,0.00
2023-03-16T02:12:26.193Z,0.00
2023-03-16T02:13:26.226Z,0.00
2023-03-16T02:14:26.228Z,0.00
2023-03-16T02:15:26.250Z,0.00
2023-03-16T02:16:26.254Z,0.00
2023-03-16T02:17:26.275Z,0.00
2023-03-16T02:18:26.294Z,0.00
2023-03-16T02:19:26.300Z,0.00
2023-03-16T02:20:26.657Z,0.00
2023-03-16T02:21:26.331Z,0.00
2023-03-16T02:22:26.349Z,0.00
2023-03-16T02:23:26.359Z,0.00
2023-03-16T02:24:26.379Z,0.00
2023-03-16T02:25:26.392Z,0.00
2023-03-16T02:26:26.409Z,0.00
2023-03-16T02:27:26.432Z,0.00
2023-03-16T02:28:26.441Z,0.00
2023-03-16T02:29:26.458Z,0.00
2023-03-16T02:30:26.722Z,0.00
2023-03-16T02:31:26.568Z,0.00
2023-03-16T02:32:26.525Z,0.00
2023-03-16T02:33:26.537Z,0.00
2023-03-16T02:34:26.539Z,0.00
2023-03-16T02:35:26.601Z,0.00
2023-03-16T02:36:26.578Z,0.00
2023-03-16T02:37:26.588Z,0.00
2023-03-16T02:38:26.622Z,0.00
2023-03-16T02:39:26.624Z,0.00
2023-03-16T02:40:27.023Z,0.00
2023-03-16T02:41:26.645Z,0.00
2023-03-16T02:42:26.656Z,0.00
2023-03-16T02:43:26.676Z,0.00
2023-03-16T02:44:26.698Z,0.00
2023-03-16T02:45:26.702Z,0.00
2023-03-16T02:46:26.765Z,0.00
2023-03-16T02:47:26.737Z,0.00
2023-03-16T02:48:26.752Z,0.00
2023-03-16T02:49:26.765Z,0.00
2023-03-16T02:50:27.034Z,0.00
2023-03-16T02:51:26.800Z,0.00
2023-03-16T02:52:26.816Z,0.00
2023-03-16T02:53:26.836Z,0.00
2023-03-16T02:54:26.845Z,0.00
2023-03-16T02:55:26.866Z,0.00
2023-03-16T02:56:26.876Z,0.00
2023-03-16T02:57:26.907Z,0.00
2023-03-16T02:58:26.915Z,0.00
2023-03-16T02:59:26.924Z,0.00
2023-03-16T03:00:27.267Z,0.00
2023-03-16T03:01:26.958Z,0.00
2023-03-16T03:02:26.974Z,0.00
2023-03-16T03:03:27.024Z,0.00
2023-03-16T03:04:27.000Z,0.00
2023-03-16T03:05:27.019Z,0.00
2023-03-16T03:06:27.031Z,0.00
2023-03-16T03:07:27.047Z,0.00
2023-03-16T03:08:27.075Z,0.00
2023-03-16T03:09:27.077Z,0.00
2023-03-16T03:10:27.294Z,0.00
2023-03-16T03:11:27.112Z,0.00
2023-03-16T03:12:27.128Z,0.00
2023-03-16T03:13:27.146Z,0.00
2023-03-16T03:14:27.162Z,0.00
2023-03-16T03:15:27.172Z,0.00
2023-03-16T03:16:27.248Z,0.00
2023-03-16T03:17:27.201Z,0.00
2023-03-16T03:18:27.243Z,0.00
2023-03-16T03:19:27.233Z,0.00
2023-03-16T03:20:27.566Z,0.00
2023-03-16T03:21:27.271Z,0.00
2023-03-16T03:22:27.287Z,0.00
2023-03-16T03:23:27.295Z,0.00
2023-03-16T03:24:27.312Z,0.00
2023-03-16T03:25:27.326Z,0.00
2023-03-16T03:26:27.342Z,0.00
2023-03-16T03:27:27.394Z,0.00
2023-03-16T03:28:27.396Z,0.00
2023-03-16T03:29:27.390Z,0.00
2023-03-16T03:30:27.759Z,0.00
2023-03-16T03:31:27.443Z,0.00
2023-03-16T03:32:27.473Z,0.00
2023-03-16T03:33:27.465Z,0.00
2023-03-16T03:34:27.469Z,0.00
2023-03-16T03:35:27.523Z,0.00
2023-03-16T03:36:27.502Z,0.00
2023-03-16T03:37:27.510Z,0.00
2023-03-16T03:38:27.541Z,0.00
2023-03-16T03:39:27.544Z,0.00
2023-03-16T03:40:27.851Z,0.00
2023-03-16T03:41:27.612Z,0.00
2023-03-16T03:42:27.586Z,0.00
2023-03-16T03:43:27.606Z,0.00
2023-03-16T03:44:27.635Z,0.00
2023-03-16T03:45:27.651Z,0.00
2023-03-16T03:46:27.858Z,0.00
2023-03-16T03:47:27.691Z,0.00
2023-03-16T03:48:27.682Z,0.00
2023-03-16T03:49:27.699Z,0.00
2023-03-16T03:50:27.955Z,0.00
2023-03-16T03:51:27.728Z,0.00
2023-03-16T03:52:27.739Z,0.00
2023-03-16T03:53:27.763Z,0.00
2023-03-16T03:54:27.778Z,0.00
2023-03-16T03:55:27.789Z,0.00
2023-03-16T03:56:27.807Z,0.00
2023-03-16T03:57:27.821Z,0.00
2023-03-16T03:58:27.835Z,0.00
2023-03-16T03:59:27.850Z,0.00
2023-03-16T04:00:28.118Z,0.00
2023-03-16T04:01:27.887Z,0.00
2023-03-16T04:02:28.108Z,0.00
2023-03-16T04:03:27.958Z,0.00
2023-03-16T04:04:27.931Z,0.00
2023-03-16T04:05:27.945Z,0.00
2023-03-16T04:06:27.959Z,0.00
2023-03-16T04:07:27.974Z,0.00
2023-03-16T04:08:27.998Z,0.00
2023-03-16T04:09:28.006Z,0.00
2023-03-16T04:10:28.207Z,0.00
2023-03-16T04:11:28.036Z,0.00
2023-03-16T04:12:28.062Z,0.00
2023-03-16T04:13:28.072Z,0.00
2023-03-16T04:14:28.083Z,0.00
2023-03-16T04:15:28.100Z,0.00
2023-03-16T04:16:28.152Z,0.00
2023-03-16T04:17:28.134Z,0.00
2023-03-16T04:18:28.154Z,0.00
2023-03-16T04:19:28.166Z,0.00
2023-03-16T04:20:28.570Z,0.00
2023-03-16T04:21:28.197Z,0.00
2023-03-16T04:22:28.210Z,0.00
2023-03-16T04:23:28.226Z,0.00
2023-03-16T04:24:28.242Z,0.00
2023-03-16T04:25:28.266Z,0.00
2023-03-16T04:26:28.273Z,0.00
2023-03-16T04:27:28.289Z,0.00
2023-03-16T04:28:28.312Z,0.00
2023-03-16T04:29:28.319Z,0.00
2023-03-16T04:30:28.582Z,0.00
2023-03-16T04:31:28.362Z,0.00
2023-03-16T04:32:28.402Z,0.00
2023-03-16T04:33:28.408Z,0.00
2023-03-16T04:34:28.445Z,0.00
2023-03-16T04:35:28.426Z,0.00
2023-03-16T04:36:28.440Z,0.00
2023-03-16T04:37:28.456Z,0.00
2023-03-16T04:38:28.469Z,0.00
2023-03-16T04:39:28.499Z,0.00
2023-03-16T04:40:28.883Z,0.00
2023-03-16T04:41:28.518Z,0.00
2023-03-16T04:42:28.532Z,0.00
2023-03-16T04:43:28.551Z,0.00
2023-03-16T04:44:28.571Z,0.00
2023-03-16T04:45:28.581Z,0.00
2023-03-16T04:46:28.615Z,0.00
2023-03-16T04:47:28.613Z,0.00
2023-03-16T04:48:28.637Z,0.00
2023-03-16T04:49:28.645Z,0.00
2023-03-16T04:50:29.001Z,0.00
2023-03-16T04:51:28.682Z,0.00
2023-03-16T04:52:28.696Z,0.00
2023-03-16T04:53:28.707Z,0.00
2023-03-16T04:54:28.730Z,0.00
2023-03-16T04:55:28.940Z,0.00
2023-03-16T04:56:28.757Z,0.00
2023-03-16T04:57:28.773Z,0.00
2023-03-16T04:58:28.790Z,0.00
2023-03-16T04:59:28.811Z,0.00
2023-03-16T05:00:29.189Z,0.00
2023-03-16T05:01:28.870Z,0.00
2023-03-16T05:02:28.856Z,0.00
2023-03-16T05:03:28.870Z,0.00
2023-03-16T05:04:28.883Z,0.00
2023-03-16T05:05:28.933Z,0.00
2023-03-16T05:06:28.918Z,0.00
2023-03-16T05:07:28.932Z,0.00
2023-03-16T05:08:28.951Z,4.00
2023-03-16T05:09:28.981Z,0.00
2023-03-16T05:10:29.384Z,0.00
2023-03-16T05:11:29.001Z,4.00
2023-03-16T05:12:29.028Z,0.00
2023-03-16T05:13:29.031Z,4.00
2023-03-16T05:14:29.046Z,0.00
2023-03-16T05:15:29.063Z,4.00
2023-03-16T05:16:29.112Z,4.00
2023-03-16T05:17:29.101Z,4.00
2023-03-16T05:18:29.113Z,8.00
2023-03-16T05:19:29.133Z,4.00
2023-03-16T05:20:29.371Z,8.00
2023-03-16T05:21:29.162Z,8.00
2023-03-16T05:22:29.193Z,12.00
2023-03-16T05:23:29.198Z,12.00
2023-03-16T05:24:29.224Z,16.00
2023-03-16T05:25:29.232Z,20.00
2023-03-16T05:26:29.242Z,24.00
2023-03-16T05:27:29.258Z,28.00
2023-03-16T05:28:29.276Z,36.00
2023-03-16T05:29:29.289Z,40.00
2023-03-16T05:30:29.951Z,48.00
2023-03-16T05:31:29.346Z,52.00
2023-03-16T05:32:29.345Z,64.00
2023-03-16T05:33:29.361Z,68.00
2023-03-16T05:34:29.372Z,80.00
2023-03-16T05:35:29.474Z,92.00
2023-03-16T05:36:29.404Z,112.00
2023-03-16T05:37:29.424Z,124.00
2023-03-16T05:38:29.449Z,140.00
2023-03-16T05:39:29.456Z,156.00
2023-03-16T05:40:29.813Z,168.00
2023-03-16T05:41:29.492Z,188.00
2023-03-16T05:42:29.520Z,208.00
2023-03-16T05:43:29.531Z,232.00
2023-03-16T05:44:29.544Z,252.00
2023-03-16T05:45:29.564Z,280.00
2023-03-16T05:46:29.606Z,312.00
2023-03-16T05:47:29.594Z,340.00
2023-03-16T05:48:29.608Z,372.00
2023-03-16T05:49:29.620Z,400.00
2023-03-16T05:50:30.030Z,436.00
2023-03-16T05:51:29.664Z,472.00
2023-03-16T05:52:29.689Z,508.00
2023-03-16T05:53:29.703Z,540.00
2023-03-16T05:54:29.711Z,564.00
2023-03-16T05:55:29.726Z,584.00
2023-03-16T05:56:29.739Z,608.00
2023-03-16T05:57:29.757Z,640.00
2023-03-16T05:58:29.773Z,676.00
2023-03-16T05:59:29.791Z,720.00
2023-03-16T06:00:30.213Z,760.00
2023-03-16T06:01:29.829Z,804.00
2023-03-16T06:02:29.924Z,844.00
2023-03-16T06:03:29.852Z,896.00
2023-03-16T06:04:29.889Z,944.00
2023-03-16T06:05:29.892Z,996.00
2023-03-16T06:06:29.915Z,1048.00
2023-03-16T06:07:29.923Z,1112.00
2023-03-16T06:08:29.942Z,1180.00
2023-03-16T06:09:29.971Z,1240.00
2023-03-16T06:10:30.443Z,1284.00
2023-03-16T06:11:29.995Z,1324.00
2023-03-16T06:12:30.004Z,1356.00
2023-03-16T06:13:30.047Z,1392.00
2023-03-16T06:14:30.051Z,1428.00
2023-03-16T06:15:30.054Z,1456.00
2023-03-16T06:16:37.314Z,1484.00
2023-03-16T06:18:34.561Z,1480.00
2023-03-16T06:19:34.078Z,1500.00
2023-03-16T06:21:38.134Z,1592.00
2023-03-16T06:22:38.084Z,1636.00
2023-03-16T06:23:38.106Z,1684.00
2023-03-16T06:24:38.119Z,1736.00
2023-03-16T06:25:40.695Z,1792.00
2023-03-16T06:26:38.161Z,1820.00
2023-03-16T06:27:38.171Z,1848.00
2023-03-16T06:28:38.188Z,1884.00
2023-03-16T06:29:38.205Z,1936.00
2023-03-16T06:30:38.222Z,2004.00
2023-03-16T06:31:38.392Z,2104.00
2023-03-16T06:32:38.332Z,2236.00
2023-03-16T06:33:38.272Z,2388.00
2023-03-16T06:34:38.487Z,2540.00
2023-03-16T06:35:38.350Z,2700.00
2023-03-16T06:36:38.327Z,2832.00
2023-03-16T06:37:38.350Z,2936.00
2023-03-16T06:38:38.366Z,3004.00
2023-03-16T06:39:38.380Z,3060.00
2023-03-16T06:40:38.422Z,3136.00
2023-03-16T06:41:38.419Z,3168.00
2023-03-16T06:42:38.427Z,3204.00
2023-03-16T06:43:38.473Z,3260.00
2023-03-16T06:44:38.487Z,3328.00
2023-03-16T06:45:38.519Z,3396.00
2023-03-16T06:46:38.498Z,3472.00
2023-03-16T06:47:38.514Z,3584.00
2023-03-16T06:48:38.542Z,3748.00
2023-03-16T06:49:38.550Z,3916.00
2023-03-16T06:50:38.594Z,4056.00
2023-03-16T06:51:38.583Z,4124.00
2023-03-16T06:52:38.603Z,4096.00
2023-03-16T06:53:38.621Z,3888.00
2023-03-16T06:54:38.638Z,3832.00
2023-03-16T06:55:38.663Z,3704.00
2023-03-16T06:56:38.673Z,3616.00
2023-03-16T06:57:38.690Z,3560.00
2023-03-16T06:58:38.719Z,3544.00
2023-03-16T06:59:38.731Z,3580.00
2023-03-16T07:00:38.745Z,3660.00
2023-03-16T07:01:38.765Z,3752.00
2023-03-16T07:02:38.784Z,3828.00
2023-03-16T07:03:38.800Z,3876.00
2023-03-16T07:04:38.863Z,3888.00
2023-03-16T07:05:38.835Z,3880.00
2023-03-16T07:06:38.854Z,3872.00
2023-03-16T07:07:38.869Z,3880.00
2023-03-16T07:08:38.891Z,3904.00
2023-03-16T07:09:41.564Z,3948.00
2023-03-16T07:10:38.923Z,4016.00
2023-03-16T07:11:38.943Z,4072.00
2023-03-16T07:12:38.962Z,4108.00
2023-03-16T07:13:38.974Z,4132.00
2023-03-16T07:14:38.999Z,4132.00
2023-03-16T07:15:39.011Z,4128.00
2023-03-16T07:16:39.090Z,4140.00
2023-03-16T07:17:39.052Z,4188.00
2023-03-16T07:18:39.100Z,4256.00
2023-03-16T07:19:39.097Z,4312.00
2023-03-16T07:20:39.108Z,4312.00
2023-03-16T07:21:39.182Z,4244.00
2023-03-16T07:22:39.138Z,4112.00
2023-03-16T07:23:39.155Z,3940.00
2023-03-16T07:24:39.203Z,3804.00
2023-03-16T07:25:39.196Z,3792.00
2023-03-16T07:26:39.225Z,3884.00
2023-03-16T07:27:39.231Z,4040.00
2023-03-16T07:28:39.274Z,4216.00
2023-03-16T07:29:39.267Z,4372.00
2023-03-16T07:30:39.284Z,4500.00
2023-03-16T07:31:39.346Z,4608.00
2023-03-16T07:32:39.342Z,4704.00
2023-03-16T07:33:39.338Z,4808.00
2023-03-16T07:34:39.359Z,4916.00
2023-03-16T07:35:39.407Z,5036.00
2023-03-16T07:36:39.395Z,5156.00
2023-03-16T07:37:39.420Z,5280.00
2023-03-16T07:38:39.434Z,5388.00
2023-03-16T07:39:39.464Z,5468.00
2023-03-16T07:40:39.471Z,5536.00
2023-03-16T07:41:39.490Z,5612.00
2023-03-16T07:42:39.506Z,5716.00
2023-03-16T07:43:39.529Z,5856.00
2023-03-16T07:44:39.549Z,6008.00
2023-03-16T07:45:39.672Z,6176.00
2023-03-16T07:46:39.593Z,6316.00
2023-03-16T07:47:39.603Z,6452.00
2023-03-16T07:48:39.625Z,6568.00
2023-03-16T07:49:39.640Z,6628.00
2023-03-16T07:50:39.662Z,6660.00
2023-03-16T07:51:39.687Z,6684.00
2023-03-16T07:52:39.696Z,6732.00
2023-03-16T07:53:39.724Z,6824.00
2023-03-16T07:54:39.733Z,7236.00
2023-03-16T07:55:39.759Z,7732.00
2023-03-16T07:56:48.890Z,8132.00
2023-03-16T07:57:39.797Z,8504.00
2023-03-16T07:58:39.824Z,8756.00
2023-03-16T07:59:39.847Z,8800.00
2023-03-16T08:00:39.870Z,8728.00
2023-03-16T08:01:39.868Z,8604.00
2023-03-16T08:02:39.918Z,8444.00
2023-03-16T08:03:39.976Z,8212.00
2023-03-16T08:04:39.929Z,7972.00
2023-03-16T08:05:39.952Z,7776.00
2023-03-16T08:06:39.968Z,7644.00
2023-03-16T08:07:39.992Z,7556.00
2023-03-16T08:08:40.016Z,7508.00
2023-03-16T08:09:40.031Z,7496.00
2023-03-16T08:10:40.048Z,7508.00
2023-03-16T08:11:40.074Z,7548.00
2023-03-16T08:12:40.175Z,7652.00
2023-03-16T08:13:40.109Z,7796.00
2023-03-16T08:14:40.125Z,7968.00
2023-03-16T08:15:40.233Z,8176.00
2023-03-16T08:16:40.173Z,8368.00
2023-03-16T08:17:40.189Z,8468.00
2023-03-16T08:18:40.208Z,8464.00
2023-03-16T08:19:40.228Z,8404.00
2023-03-16T08:20:40.253Z,8324.00
2023-03-16T08:21:57.659Z,8232.00
2023-03-16T08:22:40.300Z,8156.00
2023-03-16T08:23:40.347Z,8168.00
2023-03-16T08:24:40.335Z,8228.00
2023-03-16T08:25:40.351Z,8580.00
2023-03-16T08:26:40.370Z,8836.00
2023-03-16T08:27:40.389Z,8988.00
2023-03-16T08:28:40.441Z,8988.00
2023-03-16T08:29:40.434Z,8848.00
2023-03-16T08:30:40.454Z,8668.00
2023-03-16T08:31:40.583Z,8544.00
2023-03-16T08:32:40.535Z,8484.00
2023-03-16T08:33:40.543Z,8504.00
2023-03-16T08:34:40.534Z,8576.00
2023-03-16T08:35:40.619Z,8692.00
2023-03-16T08:36:40.577Z,8808.00
2023-03-16T08:37:40.598Z,8908.00
2023-03-16T08:38:40.617Z,8984.00
2023-03-16T08:39:40.639Z,9028.00
2023-03-16T08:40:40.661Z,9072.00
2023-03-16T08:41:40.757Z,9096.00
2023-03-16T08:42:40.702Z,9100.00
2023-03-16T08:43:40.721Z,9092.00
2023-03-16T08:44:40.745Z,9104.00
2023-03-16T08:45:40.760Z,9076.00
2023-03-16T08:46:40.944Z,9032.00
2023-03-16T08:47:40.805Z,8884.00
2023-03-16T08:48:40.826Z,8728.00
2023-03-16T08:49:40.902Z,8676.00
2023-03-16T08:50:40.862Z,8616.00
2023-03-16T08:51:40.894Z,8492.00
2023-03-16T08:52:40.911Z,8392.00
2023-03-16T08:53:40.926Z,8292.00
2023-03-16T08:54:44.946Z,8188.00
2023-03-16T08:55:40.972Z,8112.00
2023-03-16T08:56:40.979Z,8104.00
2023-03-16T08:57:41.025Z,8016.00
2023-03-16T08:58:41.034Z,7860.00
2023-03-16T08:59:41.056Z,7680.00
2023-03-16T09:00:41.075Z,7540.00
2023-03-16T09:01:41.151Z,7428.00
2023-03-16T09:02:41.112Z,7344.00
2023-03-16T09:03:41.138Z,7268.00
2023-03-16T09:04:41.410Z,7244.00
2023-03-16T09:05:41.189Z,7272.00
2023-03-16T09:06:41.197Z,7348.00
2023-03-16T09:07:41.219Z,7432.00
2023-03-16T09:08:41.242Z,7520.00
2023-03-16T09:09:41.264Z,7604.00
2023-03-16T09:10:41.286Z,7696.00
2023-03-16T09:11:41.307Z,7796.00
2023-03-16T09:12:41.336Z,7880.00
2023-03-16T09:13:41.354Z,7984.00
2023-03-16T09:14:41.370Z,8012.00
2023-03-16T09:15:41.396Z,8052.00
2023-03-16T09:16:41.446Z,8156.00
2023-03-16T09:17:41.436Z,8368.00
2023-03-16T09:18:41.456Z,8612.00
2023-03-16T09:19:51.237Z,8692.00
2023-03-16T09:20:41.505Z,8792.00
2023-03-16T09:21:41.523Z,8812.00
2023-03-16T09:22:41.544Z,8788.00
2023-03-16T09:23:41.567Z,8740.00
2023-03-16T09:24:41.632Z,8632.00
2023-03-16T09:25:41.611Z,8552.00
2023-03-16T09:26:41.714Z,8460.00
2023-03-16T09:27:41.664Z,8364.00
2023-03-16T09:28:41.681Z,8328.00
2023-03-16T09:29:41.696Z,8360.00
2023-03-16T09:30:41.720Z,8444.00
2023-03-16T09:31:41.785Z,8548.00
2023-03-16T09:32:41.791Z,8664.00
2023-03-16T09:33:41.784Z,8768.00
2023-03-16T09:34:41.808Z,8848.00
2023-03-16T09:35:41.859Z,8892.00
2023-03-16T09:36:41.860Z,8912.00
2023-03-16T09:37:45.354Z,8928.00
2023-03-16T09:38:41.896Z,8940.00
2023-03-16T09:39:41.919Z,8964.00
2023-03-16T09:40:41.949Z,8960.00
2023-03-16T09:41:41.965Z,8952.00
2023-03-16T09:42:41.991Z,8920.00
2023-03-16T09:43:42.011Z,8852.00
2023-03-16T09:44:42.034Z,8720.00
2023-03-16T09:45:42.081Z,8544.00
2023-03-16T09:46:42.079Z,8380.00
2023-03-16T09:47:42.103Z,8220.00
2023-03-16T09:48:42.126Z,8052.00
2023-03-16T09:49:42.150Z,7900.00
2023-03-16T09:50:48.667Z,7724.00
2023-03-16T09:51:42.190Z,7564.00
2023-03-16T09:52:42.214Z,7428.00
2023-03-16T09:53:42.245Z,7352.00
2023-03-16T09:54:42.294Z,7304.00
2023-03-16T09:55:42.291Z,7328.00
2023-03-16T09:56:42.314Z,7456.00
2023-03-16T09:57:42.367Z,7676.00
2023-03-16T09:58:42.355Z,7968.00
2023-03-16T09:59:42.375Z,8292.00
2023-03-16T10:00:42.435Z,8620.00
2023-03-16T10:01:42.424Z,8912.00
2023-03-16T10:02:42.441Z,9192.00
2023-03-16T10:03:42.502Z,9460.00
2023-03-16T10:04:43.826Z,9712.00
2023-03-16T10:05:42.511Z,9952.00
2023-03-16T10:06:42.534Z,10184.00
2023-03-16T10:07:42.577Z,10344.00
2023-03-16T10:08:42.582Z,10456.00
2023-03-16T10:09:42.604Z,10512.00
2023-03-16T10:10:42.627Z,10548.00
2023-03-16T10:11:42.652Z,10548.00
2023-03-16T10:12:42.672Z,10520.00
2023-03-16T10:13:42.695Z,10488.00
2023-03-16T10:14:42.756Z,10444.00
2023-03-16T10:15:42.741Z,10404.00
2023-03-16T10:16:42.782Z,10216.00
2023-03-16T10:17:42.796Z,10316.00
2023-03-16T10:18:42.815Z,10308.00
2023-03-16T10:19:42.835Z,10324.00
2023-03-16T10:20:42.860Z,10380.00
2023-03-16T10:21:42.883Z,10460.00
2023-03-16T10:22:42.926Z,10580.00
2023-03-16T10:23:42.931Z,10724.00
2023-03-16T10:24:42.950Z,10888.00
2023-03-16T10:25:42.974Z,11068.00
2023-03-16T10:26:42.995Z,11240.00
2023-03-16T10:27:43.019Z,11428.00
2023-03-16T10:28:43.048Z,11596.00
2023-03-16T10:29:43.075Z,11724.00
2023-03-16T10:30:43.988Z,11808.00
2023-03-16T10:31:43.111Z,11836.00
2023-03-16T10:32:43.168Z,11788.00
2023-03-16T10:33:43.160Z,11708.00
2023-03-16T10:34:43.182Z,11624.00
2023-03-16T10:35:43.214Z,11568.00
2023-03-16T10:36:43.278Z,11556.00
2023-03-16T10:37:43.253Z,11588.00
2023-03-16T10:38:43.277Z,11644.00
2023-03-16T10:39:43.311Z,11684.00
2023-03-16T10:40:43.322Z,11688.00
2023-03-16T10:41:43.346Z,11644.00
2023-03-16T10:42:43.375Z,11564.00
2023-03-16T10:43:43.397Z,11472.00
2023-03-16T10:44:43.421Z,11384.00
2023-03-16T10:45:43.599Z,11324.00
2023-03-16T10:46:43.536Z,11304.00
2023-03-16T10:47:43.500Z,11300.00
2023-03-16T10:48:43.515Z,11288.00
2023-03-16T10:49:43.545Z,11240.00
2023-03-16T10:50:43.565Z,11164.00
2023-03-16T10:51:43.592Z,11060.00
2023-03-16T10:52:43.613Z,10932.00
2023-03-16T10:53:43.639Z,10784.00
2023-03-16T10:54:43.663Z,10648.00
2023-03-16T10:55:43.696Z,10532.00
2023-03-16T10:56:43.712Z,10436.00
2023-03-16T10:57:43.768Z,10360.00
2023-03-16T10:58:43.757Z,10296.00
2023-03-16T10:59:43.782Z,10228.00
2023-03-16T11:00:43.804Z,10116.00
2023-03-16T11:01:43.853Z,9920.00
2023-03-16T11:02:43.858Z,9684.00
2023-03-16T11:03:43.878Z,9408.00
2023-03-16T11:04:44.044Z,9184.00
2023-03-16T11:05:43.930Z,9048.00
2023-03-16T11:06:43.946Z,8992.00
2023-03-16T11:07:43.978Z,9024.00
2023-03-16T11:08:43.998Z,9160.00
2023-03-16T11:09:44.020Z,9376.00
2023-03-16T11:10:55.205Z,9636.00
2023-03-16T11:11:44.070Z,9904.00
2023-03-16T11:12:44.091Z,10152.00
2023-03-16T11:13:44.122Z,10408.00
2023-03-16T11:14:44.146Z,10632.00
2023-03-16T11:15:44.170Z,10796.00
2023-03-16T11:16:44.215Z,10892.00
2023-03-16T11:17:44.212Z,10884.00
2023-03-16T11:18:44.234Z,10760.00
2023-03-16T11:19:44.256Z,10588.00
2023-03-16T11:20:44.281Z,10480.00
2023-03-16T11:21:44.302Z,10452.00
2023-03-16T11:22:44.330Z,10488.00
2023-03-16T11:23:44.352Z,10632.00
2023-03-16T11:24:44.377Z,10840.00
2023-03-16T11:25:44.400Z,11200.00
2023-03-16T11:26:44.424Z,11720.00
2023-03-16T11:27:44.448Z,12312.00
2023-03-16T11:28:44.485Z,12688.00
2023-03-16T11:29:44.497Z,12700.00
2023-03-16T11:30:44.535Z,12436.00
2023-03-16T11:31:44.545Z,12080.00
2023-03-16T11:32:44.628Z,11708.00
2023-03-16T11:33:44.588Z,11388.00
2023-03-16T11:34:44.612Z,11264.00
2023-03-16T11:35:58.064Z,11340.00
2023-03-16T11:36:44.664Z,11452.00
2023-03-16T11:37:44.684Z,11536.00
2023-03-16T11:38:44.712Z,11580.00
2023-03-16T11:39:44.737Z,11608.00
2023-03-16T11:40:44.754Z,11672.00
2023-03-16T11:41:44.776Z,11756.00
2023-03-16T11:42:44.803Z,11948.00
2023-03-16T11:43:44.832Z,12332.00
2023-03-16T11:44:44.857Z,12824.00
2023-03-16T11:45:44.902Z,13172.00
2023-03-16T11:46:44.900Z,13212.00
2023-03-16T11:47:44.930Z,13040.00
2023-03-16T11:48:44.948Z,12748.00
2023-03-16T11:49:44.971Z,12416.00
2023-03-16T11:50:45.003Z,12132.00
2023-03-16T11:51:45.018Z,11948.00
2023-03-16T11:52:45.670Z,11800.00
2023-03-16T11:53:45.065Z,11656.00
2023-03-16T11:54:45.094Z,11524.00
2023-03-16T11:55:45.115Z,11460.00
2023-03-16T11:56:45.141Z,11468.00
2023-03-16T11:57:45.182Z,11536.00
2023-03-16T11:58:45.191Z,11676.00
2023-03-16T11:59:51.943Z,11864.00
2023-03-16T12:00:45.236Z,12008.00
2023-03-16T12:01:57.946Z,12004.00
2023-03-16T12:02:45.522Z,11908.00
2023-03-16T12:03:45.338Z,11888.00
2023-03-16T12:04:45.332Z,11948.00
2023-03-16T12:05:46.046Z,12052.00
2023-03-16T12:06:45.374Z,12104.00
2023-03-16T12:07:45.402Z,12100.00
2023-03-16T12:08:45.420Z,12024.00
2023-03-16T12:09:45.447Z,11900.00
2023-03-16T12:10:45.470Z,11804.00
2023-03-16T12:11:45.501Z,11776.00
2023-03-16T12:12:45.515Z,11860.00
2023-03-16T12:13:45.549Z,12040.00
2023-03-16T12:14:45.602Z,12168.00
2023-03-16T12:15:45.624Z,12164.00
2023-03-16T12:16:49.500Z,12056.00
2023-03-16T12:17:45.645Z,11908.00
2023-03-16T12:18:45.664Z,11728.00
2023-03-16T12:19:45.691Z,11492.00
2023-03-16T12:20:45.709Z,11276.00
2023-03-16T12:21:45.736Z,11156.00
2023-03-16T12:22:45.763Z,11160.00
2023-03-16T12:23:45.798Z,11248.00
2023-03-16T12:24:45.815Z,11388.00
2023-03-16T12:25:45.834Z,11512.00
2023-03-16T12:26:45.861Z,11560.00
2023-03-16T12:27:45.883Z,11464.00
2023-03-16T12:28:45.909Z,11248.00
2023-03-16T12:29:45.955Z,10976.00
2023-03-16T12:30:45.959Z,10700.00
2023-03-16T12:31:46.041Z,10496.00
2023-03-16T12:32:46.028Z,10312.00
2023-03-16T12:33:46.036Z,9984.00
2023-03-16T12:34:46.054Z,9560.00